sensor_id;sensor_type;location;lat;lon;timestamp;temperature;humidity
8459;DHT22;4266;48.816;9.154;2022-12-16T00:01:58;-1.30;98.00
8459;DHT22;4266;48.816;9.154;2022-12-16T00:04:24;-1.30;98.10
8459;DHT22;4266;48.816;9.154;2022-12-16T00:06:50;-1.30;98.60
8459;DHT22;4266;48.816;9.154;2022-12-16T00:09:16;-1.40;98.20
8459;DHT22;4266;48.816;9.154;2022-12-16T00:11:42;-1.50;98.70
8459;DHT22;4266;48.816;9.154;2022-12-16T00:14:08;-1.60;98.60
8459;DHT22;4266;48.816;9.154;2022-12-16T00:16:34;-1.40;99.00
8459;DHT22;4266;48.816;9.154;2022-12-16T00:19:00;-1.50;98.90
8459;DHT22;4266;48.816;9.154;2022-12-16T00:21:26;-1.40;98.40
8459;DHT22;4266;48.816;9.154;2022-12-16T00:23:51;-1.50;98.40
8459;DHT22;4266;48.816;9.154;2022-12-16T00:26:17;-1.40;99.40
8459;DHT22;4266;48.816;9.154;2022-12-16T00:28:43;-1.40;98.70
8459;DHT22;4266;48.816;9.154;2022-12-16T00:31:09;-1.50;98.50
8459;DHT22;4266;48.816;9.154;2022-12-16T00:33:34;-1.50;98.40
8459;DHT22;4266;48.816;9.154;2022-12-16T00:36:00;-1.60;98.60
8459;DHT22;4266;48.816;9.154;2022-12-16T00:38:26;-1.50;99.60
8459;DHT22;4266;48.816;9.154;2022-12-16T00:40:51;-1.50;98.50
8459;DHT22;4266;48.816;9.154;2022-12-16T00:43:17;-1.60;98.90
8459;DHT22;4266;48.816;9.154;2022-12-16T00:45:44;-1.60;99.60
8459;DHT22;4266;48.816;9.154;2022-12-16T00:48:09;-1.50;99.20
8459;DHT22;4266;48.816;9.154;2022-12-16T00:50:35;-1.50;99.30
8459;DHT22;4266;48.816;9.154;2022-12-16T00:53:02;-1.60;98.50
8459;DHT22;4266;48.816;9.154;2022-12-16T00:55:27;-1.60;98.50
8459;DHT22;4266;48.816;9.154;2022-12-16T00:57:53;-1.70;98.70
8459;DHT22;4266;48.816;9.154;2022-12-16T01:00:19;-1.60;99.10
8459;DHT22;4266;48.816;9.154;2022-12-16T01:02:46;-1.60;98.90
8459;DHT22;4266;48.816;9.154;2022-12-16T01:05:12;-1.60;99.80
8459;DHT22;4266;48.816;9.154;2022-12-16T01:07:37;-1.60;99.80
8459;DHT22;4266;48.816;9.154;2022-12-16T01:10:03;-1.60;99.70
8459;DHT22;4266;48.816;9.154;2022-12-16T01:12:30;-1.60;99.20
8459;DHT22;4266;48.816;9.154;2022-12-16T01:14:55;-1.60;99.20
8459;DHT22;4266;48.816;9.154;2022-12-16T01:17:21;-1.60;99.20
8459;DHT22;4266;48.816;9.154;2022-12-16T01:19:47;-1.60;99.10
8459;DHT22;4266;48.816;9.154;2022-12-16T01:22:13;-1.60;99.50
8459;DHT22;4266;48.816;9.154;2022-12-16T01:24:38;-1.60;99.30
8459;DHT22;4266;48.816;9.154;2022-12-16T01:27:04;-1.70;99.50
8459;DHT22;4266;48.816;9.154;2022-12-16T01:29:30;-1.70;99.70
8459;DHT22;4266;48.816;9.154;2022-12-16T01:31:56;-1.70;99.90
8459;DHT22;4266;48.816;9.154;2022-12-16T01:34:22;-1.70;99.90
8459;DHT22;4266;48.816;9.154;2022-12-16T01:36:48;-1.60;99.60
8459;DHT22;4266;48.816;9.154;2022-12-16T01:39:14;-1.70;99.20
8459;DHT22;4266;48.816;9.154;2022-12-16T01:41:39;-1.80;99.60
8459;DHT22;4266;48.816;9.154;2022-12-16T01:44:13;-1.80;99.90
8459;DHT22;4266;48.816;9.154;2022-12-16T01:46:38;-1.80;99.90
8459;DHT22;4266;48.816;9.154;2022-12-16T01:49:05;-1.80;99.90
8459;DHT22;4266;48.816;9.154;2022-12-16T01:51:33;-1.70;99.90
8459;DHT22;4266;48.816;9.154;2022-12-16T01:53:59;-1.70;99.70
8459;DHT22;4266;48.816;9.154;2022-12-16T01:56:24;-1.70;99.70
8459;DHT22;4266;48.816;9.154;2022-12-16T01:58:49;-1.70;99.70
8459;DHT22;4266;48.816;9.154;2022-12-16T02:01:15;-1.70;99.90
8459;DHT22;4266;48.816;9.154;2022-12-16T02:03:41;-1.80;99.30
8459;DHT22;4266;48.816;9.154;2022-12-16T02:06:07;-1.70;99.50
8459;DHT22;4266;48.816;9.154;2022-12-16T02:08:32;-1.70;99.80
8459;DHT22;4266;48.816;9.154;2022-12-16T02:11:02;-1.80;99.60
8459;DHT22;4266;48.816;9.154;2022-12-16T02:16:27;-1.70;99.90
8459;DHT22;4266;48.816;9.154;2022-12-16T02:19:22;-1.70;99.90
8459;DHT22;4266;48.816;9.154;2022-12-16T02:22:08;-1.70;99.90
8459;DHT22;4266;48.816;9.154;2022-12-16T02:24:51;-1.70;99.90
8459;DHT22;4266;48.816;9.154;2022-12-16T02:27:27;-1.70;99.90
8459;DHT22;4266;48.816;9.154;2022-12-16T02:32:33;-1.70;99.90
8459;DHT22;4266;48.816;9.154;2022-12-16T02:35:08;-1.70;99.90
8459;DHT22;4266;48.816;9.154;2022-12-16T02:37:37;-1.90;99.90
8459;DHT22;4266;48.816;9.154;2022-12-16T02:40:02;-1.90;99.90
8459;DHT22;4266;48.816;9.154;2022-12-16T02:42:29;-1.80;99.90
8459;DHT22;4266;48.816;9.154;2022-12-16T02:44:59;-1.70;99.90
8459;DHT22;4266;48.816;9.154;2022-12-16T02:47:23;-1.60;99.90
8459;DHT22;4266;48.816;9.154;2022-12-16T02:49:49;-1.70;99.90
8459;DHT22;4266;48.816;9.154;2022-12-16T02:52:15;-1.80;99.90
8459;DHT22;4266;48.816;9.154;2022-12-16T02:54:40;-1.80;99.90
8459;DHT22;4266;48.816;9.154;2022-12-16T02:57:20;-1.70;99.90
8459;DHT22;4266;48.816;9.154;2022-12-16T02:59:47;-1.60;99.90
8459;DHT22;4266;48.816;9.154;2022-12-16T03:02:12;-1.70;99.90
8459;DHT22;4266;48.816;9.154;2022-12-16T03:04:40;-1.60;99.90
8459;DHT22;4266;48.816;9.154;2022-12-16T03:07:06;-1.60;99.50
8459;DHT22;4266;48.816;9.154;2022-12-16T03:09:31;-1.80;99.90
8459;DHT22;4266;48.816;9.154;2022-12-16T03:11:57;-1.70;99.90
8459;DHT22;4266;48.816;9.154;2022-12-16T03:14:23;-1.70;99.90
8459;DHT22;4266;48.816;9.154;2022-12-16T03:16:48;-1.80;99.90
8459;DHT22;4266;48.816;9.154;2022-12-16T03:19:14;-1.60;99.90
8459;DHT22;4266;48.816;9.154;2022-12-16T03:21:48;-1.60;99.90
8459;DHT22;4266;48.816;9.154;2022-12-16T03:24:11;-1.60;99.90
8459;DHT22;4266;48.816;9.154;2022-12-16T03:26:39;-1.70;99.90
8459;DHT22;4266;48.816;9.154;2022-12-16T03:29:09;-1.70;99.80
8459;DHT22;4266;48.816;9.154;2022-12-16T03:31:40;-1.70;99.90
8459;DHT22;4266;48.816;9.154;2022-12-16T03:34:29;-1.70;99.90
8459;DHT22;4266;48.816;9.154;2022-12-16T03:36:52;-1.70;99.90
8459;DHT22;4266;48.816;9.154;2022-12-16T03:39:17;-1.70;99.90
8459;DHT22;4266;48.816;9.154;2022-12-16T03:41:42;-1.70;99.90
8459;DHT22;4266;48.816;9.154;2022-12-16T03:44:08;-1.60;99.90
8459;DHT22;4266;48.816;9.154;2022-12-16T03:46:35;-1.60;99.90
8459;DHT22;4266;48.816;9.154;2022-12-16T03:49:01;-1.60;99.90
8459;DHT22;4266;48.816;9.154;2022-12-16T03:51:27;-1.60;99.60
8459;DHT22;4266;48.816;9.154;2022-12-16T03:53:53;-1.60;99.60
8459;DHT22;4266;48.816;9.154;2022-12-16T03:56:20;-1.60;99.90
8459;DHT22;4266;48.816;9.154;2022-12-16T03:58:46;-1.60;99.80
8459;DHT22;4266;48.816;9.154;2022-12-16T04:01:13;-1.60;99.10
8459;DHT22;4266;48.816;9.154;2022-12-16T04:03:39;-1.60;99.10
8459;DHT22;4266;48.816;9.154;2022-12-16T04:06:05;-1.60;99.10
8459;DHT22;4266;48.816;9.154;2022-12-16T04:08:31;-1.70;99.20
8459;DHT22;4266;48.816;9.154;2022-12-16T04:10:57;-1.70;99.70
8459;DHT22;4266;48.816;9.154;2022-12-16T04:13:28;-1.60;99.90
8459;DHT22;4266;48.816;9.154;2022-12-16T04:16:00;-1.70;99.40
8459;DHT22;4266;48.816;9.154;2022-12-16T04:18:32;-1.70;99.90
8459;DHT22;4266;48.816;9.154;2022-12-16T04:21:04;-1.50;99.90
8459;DHT22;4266;48.816;9.154;2022-12-16T04:23:44;-1.60;99.10
8459;DHT22;4266;48.816;9.154;2022-12-16T04:26:08;-1.70;99.60
8459;DHT22;4266;48.816;9.154;2022-12-16T04:28:33;-1.70;99.90
8459;DHT22;4266;48.816;9.154;2022-12-16T04:30:59;-1.70;99.70
8459;DHT22;4266;48.816;9.154;2022-12-16T04:33:25;-1.70;98.90
8459;DHT22;4266;48.816;9.154;2022-12-16T04:35:57;-1.60;99.90
8459;DHT22;4266;48.816;9.154;2022-12-16T04:38:29;-1.60;99.90
8459;DHT22;4266;48.816;9.154;2022-12-16T04:41:01;-1.60;99.50
8459;DHT22;4266;48.816;9.154;2022-12-16T04:43:33;-1.80;99.30
8459;DHT22;4266;48.816;9.154;2022-12-16T04:46:05;-1.70;99.50
8459;DHT22;4266;48.816;9.154;2022-12-16T04:48:37;-1.70;99.90
8459;DHT22;4266;48.816;9.154;2022-12-16T04:51:09;-1.80;99.50
8459;DHT22;4266;48.816;9.154;2022-12-16T04:53:41;-1.80;99.20
8459;DHT22;4266;48.816;9.154;2022-12-16T04:56:12;-1.90;99.00
8459;DHT22;4266;48.816;9.154;2022-12-16T04:58:44;-1.70;99.80
8459;DHT22;4266;48.816;9.154;2022-12-16T05:01:16;-1.70;99.60
8459;DHT22;4266;48.816;9.154;2022-12-16T05:03:48;-1.80;99.30
8459;DHT22;4266;48.816;9.154;2022-12-16T05:06:19;-1.70;99.90
8459;DHT22;4266;48.816;9.154;2022-12-16T05:08:51;-1.60;99.80
8459;DHT22;4266;48.816;9.154;2022-12-16T05:11:23;-1.70;99.30
8459;DHT22;4266;48.816;9.154;2022-12-16T05:13:55;-1.70;99.90
8459;DHT22;4266;48.816;9.154;2022-12-16T05:16:26;-1.60;99.60
8459;DHT22;4266;48.816;9.154;2022-12-16T05:18:58;-1.70;98.60
8459;DHT22;4266;48.816;9.154;2022-12-16T05:21:45;-1.80;99.40
8459;DHT22;4266;48.816;9.154;2022-12-16T05:24:16;-1.70;99.20
8459;DHT22;4266;48.816;9.154;2022-12-16T05:26:48;-1.70;98.70
8459;DHT22;4266;48.816;9.154;2022-12-16T05:29:20;-1.80;98.30
8459;DHT22;4266;48.816;9.154;2022-12-16T05:31:52;-1.80;99.20
8459;DHT22;4266;48.816;9.154;2022-12-16T05:34:39;-1.60;99.60
8459;DHT22;4266;48.816;9.154;2022-12-16T05:37:12;-1.70;98.60
8459;DHT22;4266;48.816;9.154;2022-12-16T05:39:43;-1.70;98.60
8459;DHT22;4266;48.816;9.154;2022-12-16T05:42:15;-1.60;99.20
8459;DHT22;4266;48.816;9.154;2022-12-16T05:44:47;-1.60;98.50
8459;DHT22;4266;48.816;9.154;2022-12-16T05:47:19;-1.70;99.20
8459;DHT22;4266;48.816;9.154;2022-12-16T05:49:51;-1.70;99.30
8459;DHT22;4266;48.816;9.154;2022-12-16T05:52:23;-1.70;98.70
8459;DHT22;4266;48.816;9.154;2022-12-16T05:54:55;-1.60;99.60
8459;DHT22;4266;48.816;9.154;2022-12-16T05:57:26;-1.60;99.50
8459;DHT22;4266;48.816;9.154;2022-12-16T05:59:58;-1.60;98.90
8459;DHT22;4266;48.816;9.154;2022-12-16T06:02:30;-1.60;99.40
8459;DHT22;4266;48.816;9.154;2022-12-16T06:05:02;-1.60;99.40
8459;DHT22;4266;48.816;9.154;2022-12-16T06:07:34;-1.60;99.20
8459;DHT22;4266;48.816;9.154;2022-12-16T06:10:06;-1.50;99.10
8459;DHT22;4266;48.816;9.154;2022-12-16T06:12:38;-1.50;98.40
8459;DHT22;4266;48.816;9.154;2022-12-16T06:15:10;-1.50;98.40
8459;DHT22;4266;48.816;9.154;2022-12-16T06:17:45;-1.60;98.70
8459;DHT22;4266;48.816;9.154;2022-12-16T06:20:14;-1.60;99.20
8459;DHT22;4266;48.816;9.154;2022-12-16T06:22:51;-1.70;99.70
8459;DHT22;4266;48.816;9.154;2022-12-16T06:25:22;-1.60;99.00
8459;DHT22;4266;48.816;9.154;2022-12-16T06:27:55;-1.60;98.50
8459;DHT22;4266;48.816;9.154;2022-12-16T06:30:27;-1.60;98.50
8459;DHT22;4266;48.816;9.154;2022-12-16T06:32:59;-1.50;98.80
8459;DHT22;4266;48.816;9.154;2022-12-16T06:35:31;-1.60;98.10
8459;DHT22;4266;48.816;9.154;2022-12-16T06:38:03;-1.60;98.10
8459;DHT22;4266;48.816;9.154;2022-12-16T06:40:36;-1.60;98.40
8459;DHT22;4266;48.816;9.154;2022-12-16T06:43:08;-1.60;98.00
8459;DHT22;4266;48.816;9.154;2022-12-16T06:45:41;-1.60;98.00
8459;DHT22;4266;48.816;9.154;2022-12-16T06:48:13;-1.70;98.00
8459;DHT22;4266;48.816;9.154;2022-12-16T06:50:45;-1.60;98.40
8459;DHT22;4266;48.816;9.154;2022-12-16T06:53:17;-1.60;97.70
8459;DHT22;4266;48.816;9.154;2022-12-16T06:55:49;-1.60;97.90
8459;DHT22;4266;48.816;9.154;2022-12-16T06:58:21;-1.60;97.90
8459;DHT22;4266;48.816;9.154;2022-12-16T07:00:53;-1.60;97.30
8459;DHT22;4266;48.816;9.154;2022-12-16T07:03:25;-1.60;97.60
8459;DHT22;4266;48.816;9.154;2022-12-16T07:05:57;-1.60;97.90
8459;DHT22;4266;48.816;9.154;2022-12-16T07:08:29;-1.60;97.70
8459;DHT22;4266;48.816;9.154;2022-12-16T07:11:01;-1.50;97.60
8459;DHT22;4266;48.816;9.154;2022-12-16T07:13:32;-1.50;97.20
8459;DHT22;4266;48.816;9.154;2022-12-16T07:16:05;-1.60;98.00
8459;DHT22;4266;48.816;9.154;2022-12-16T07:18:37;-1.60;97.50
8459;DHT22;4266;48.816;9.154;2022-12-16T07:21:09;-1.60;96.50
8459;DHT22;4266;48.816;9.154;2022-12-16T07:23:41;-1.70;96.50
8459;DHT22;4266;48.816;9.154;2022-12-16T07:26:13;-1.70;96.40
8459;DHT22;4266;48.816;9.154;2022-12-16T07:28:44;-1.70;95.80
8459;DHT22;4266;48.816;9.154;2022-12-16T07:31:16;-1.70;95.70
8459;DHT22;4266;48.816;9.154;2022-12-16T07:33:48;-1.60;95.90
8459;DHT22;4266;48.816;9.154;2022-12-16T07:36:20;-1.60;96.10
8459;DHT22;4266;48.816;9.154;2022-12-16T07:38:52;-1.50;95.20
8459;DHT22;4266;48.816;9.154;2022-12-16T07:41:24;-1.50;95.20
8459;DHT22;4266;48.816;9.154;2022-12-16T07:43:56;-1.50;95.60
8459;DHT22;4266;48.816;9.154;2022-12-16T07:46:28;-1.50;96.10
8459;DHT22;4266;48.816;9.154;2022-12-16T07:49:01;-1.40;95.50
8459;DHT22;4266;48.816;9.154;2022-12-16T07:51:34;-1.50;96.10
8459;DHT22;4266;48.816;9.154;2022-12-16T07:54:06;-1.40;95.40
8459;DHT22;4266;48.816;9.154;2022-12-16T07:56:39;-1.40;95.20
8459;DHT22;4266;48.816;9.154;2022-12-16T07:59:11;-1.40;95.20
8459;DHT22;4266;48.816;9.154;2022-12-16T08:01:43;-1.40;95.10
8459;DHT22;4266;48.816;9.154;2022-12-16T08:04:15;-1.40;95.10
8459;DHT22;4266;48.816;9.154;2022-12-16T08:06:48;-1.30;94.90
8459;DHT22;4266;48.816;9.154;2022-12-16T08:09:20;-1.30;95.30
8459;DHT22;4266;48.816;9.154;2022-12-16T08:11:52;-1.30;95.30
8459;DHT22;4266;48.816;9.154;2022-12-16T08:14:23;-1.20;94.80
8459;DHT22;4266;48.816;9.154;2022-12-16T08:16:55;-1.20;95.30
8459;DHT22;4266;48.816;9.154;2022-12-16T08:19:27;-1.10;94.10
8459;DHT22;4266;48.816;9.154;2022-12-16T08:21:59;-1.10;94.10
8459;DHT22;4266;48.816;9.154;2022-12-16T08:24:31;-1.00;93.60
8459;DHT22;4266;48.816;9.154;2022-12-16T08:27:03;-1.10;93.20
8459;DHT22;4266;48.816;9.154;2022-12-16T08:29:35;-1.10;92.60
8459;DHT22;4266;48.816;9.154;2022-12-16T08:32:07;-1.10;92.60
8459;DHT22;4266;48.816;9.154;2022-12-16T08:34:39;-1.10;92.70
8459;DHT22;4266;48.816;9.154;2022-12-16T08:37:11;-1.10;92.70
8459;DHT22;4266;48.816;9.154;2022-12-16T08:39:44;-1.00;92.80
8459;DHT22;4266;48.816;9.154;2022-12-16T08:42:15;-1.00;92.80
8459;DHT22;4266;48.816;9.154;2022-12-16T08:44:47;-1.00;92.50
8459;DHT22;4266;48.816;9.154;2022-12-16T08:47:19;-1.00;92.60
8459;DHT22;4266;48.816;9.154;2022-12-16T08:49:51;-0.90;92.50
8459;DHT22;4266;48.816;9.154;2022-12-16T08:52:22;-1.00;92.40
8459;DHT22;4266;48.816;9.154;2022-12-16T08:54:54;-1.00;92.20
8459;DHT22;4266;48.816;9.154;2022-12-16T08:57:26;-1.10;92.60
8459;DHT22;4266;48.816;9.154;2022-12-16T08:59:58;-1.00;92.40
8459;DHT22;4266;48.816;9.154;2022-12-16T09:02:30;-0.90;92.80
8459;DHT22;4266;48.816;9.154;2022-12-16T09:05:01;-0.80;92.60
8459;DHT22;4266;48.816;9.154;2022-12-16T09:07:33;-0.90;92.20
8459;DHT22;4266;48.816;9.154;2022-12-16T09:10:06;-0.90;92.80
8459;DHT22;4266;48.816;9.154;2022-12-16T09:12:38;-0.80;92.20
8459;DHT22;4266;48.816;9.154;2022-12-16T09:15:11;-0.60;91.40
8459;DHT22;4266;48.816;9.154;2022-12-16T09:17:42;-0.60;91.40
8459;DHT22;4266;48.816;9.154;2022-12-16T09:20:14;-0.60;90.90
8459;DHT22;4266;48.816;9.154;2022-12-16T09:22:47;-0.60;90.70
8459;DHT22;4266;48.816;9.154;2022-12-16T09:25:18;-0.60;90.70
8459;DHT22;4266;48.816;9.154;2022-12-16T09:27:50;-0.40;90.50
8459;DHT22;4266;48.816;9.154;2022-12-16T09:30:22;-0.30;90.10
8459;DHT22;4266;48.816;9.154;2022-12-16T09:32:54;-0.40;90.20
8459;DHT22;4266;48.816;9.154;2022-12-16T09:35:26;-0.40;90.20
8459;DHT22;4266;48.816;9.154;2022-12-16T09:37:58;-0.30;90.40
8459;DHT22;4266;48.816;9.154;2022-12-16T09:40:31;-0.10;90.20
8459;DHT22;4266;48.816;9.154;2022-12-16T09:43:23;-0.10;90.20
8459;DHT22;4266;48.816;9.154;2022-12-16T09:46:09;0.00;90.30
8459;DHT22;4266;48.816;9.154;2022-12-16T09:49:10;-0.10;90.20
8459;DHT22;4266;48.816;9.154;2022-12-16T09:51:37;0.00;90.20
8459;DHT22;4266;48.816;9.154;2022-12-16T09:54:10;0.00;89.30
8459;DHT22;4266;48.816;9.154;2022-12-16T09:56:41;0.00;87.70
8459;DHT22;4266;48.816;9.154;2022-12-16T09:59:14;0.00;87.80
8459;DHT22;4266;48.816;9.154;2022-12-16T10:01:45;0.10;89.20
8459;DHT22;4266;48.816;9.154;2022-12-16T10:04:17;-0.10;89.30
8459;DHT22;4266;48.816;9.154;2022-12-16T10:06:50;0.00;88.80
8459;DHT22;4266;48.816;9.154;2022-12-16T10:12:22;0.00;87.30
8459;DHT22;4266;48.816;9.154;2022-12-16T10:14:57;0.00;87.30
8459;DHT22;4266;48.816;9.154;2022-12-16T10:17:26;0.00;89.10
8459;DHT22;4266;48.816;9.154;2022-12-16T10:20:19;0.10;86.80
8459;DHT22;4266;48.816;9.154;2022-12-16T10:23:04;-0.10;88.40
8459;DHT22;4266;48.816;9.154;2022-12-16T10:25:39;-0.10;86.30
8459;DHT22;4266;48.816;9.154;2022-12-16T10:28:14;0.10;87.50
8459;DHT22;4266;48.816;9.154;2022-12-16T10:30:44;0.00;87.60
8459;DHT22;4266;48.816;9.154;2022-12-16T10:33:17;0.20;88.10
8459;DHT22;4266;48.816;9.154;2022-12-16T10:35:50;0.10;88.00
8459;DHT22;4266;48.816;9.154;2022-12-16T10:38:26;0.30;87.20
8459;DHT22;4266;48.816;9.154;2022-12-16T10:40:56;0.30;87.70
8459;DHT22;4266;48.816;9.154;2022-12-16T10:43:34;0.20;87.80
8459;DHT22;4266;48.816;9.154;2022-12-16T10:46:06;0.20;87.60
8459;DHT22;4266;48.816;9.154;2022-12-16T10:48:37;0.40;87.30
8459;DHT22;4266;48.816;9.154;2022-12-16T10:51:12;0.60;88.00
8459;DHT22;4266;48.816;9.154;2022-12-16T10:53:43;0.60;88.00
8459;DHT22;4266;48.816;9.154;2022-12-16T10:56:46;0.70;87.70
8459;DHT22;4266;48.816;9.154;2022-12-16T10:59:12;0.80;86.90
8459;DHT22;4266;48.816;9.154;2022-12-16T11:01:59;0.80;85.80
8459;DHT22;4266;48.816;9.154;2022-12-16T11:04:32;0.90;86.70
8459;DHT22;4266;48.816;9.154;2022-12-16T11:07:02;0.90;85.80
8459;DHT22;4266;48.816;9.154;2022-12-16T11:09:35;0.70;85.20
8459;DHT22;4266;48.816;9.154;2022-12-16T11:12:13;0.70;85.20
8459;DHT22;4266;48.816;9.154;2022-12-16T11:14:51;0.80;85.60
8459;DHT22;4266;48.816;9.154;2022-12-16T11:17:19;0.80;85.60
8459;DHT22;4266;48.816;9.154;2022-12-16T11:19:55;1.10;85.50
8459;DHT22;4266;48.816;9.154;2022-12-16T11:22:21;0.90;85.20
8459;DHT22;4266;48.816;9.154;2022-12-16T11:27:45;1.10;84.80
8459;DHT22;4266;48.816;9.154;2022-12-16T11:30:19;0.90;83.40
8459;DHT22;4266;48.816;9.154;2022-12-16T11:32:50;0.90;83.60
8459;DHT22;4266;48.816;9.154;2022-12-16T11:35:22;0.80;83.50
8459;DHT22;4266;48.816;9.154;2022-12-16T11:37:52;0.80;82.60
8459;DHT22;4266;48.816;9.154;2022-12-16T11:40:24;1.00;83.90
8459;DHT22;4266;48.816;9.154;2022-12-16T11:42:56;1.10;83.00
8459;DHT22;4266;48.816;9.154;2022-12-16T11:45:28;1.50;83.10
8459;DHT22;4266;48.816;9.154;2022-12-16T11:48:04;1.50;83.10
8459;DHT22;4266;48.816;9.154;2022-12-16T11:50:35;1.60;81.40
8459;DHT22;4266;48.816;9.154;2022-12-16T11:53:21;1.50;81.30
8459;DHT22;4266;48.816;9.154;2022-12-16T11:55:37;1.60;81.80
8459;DHT22;4266;48.816;9.154;2022-12-16T11:58:47;1.50;83.30
8459;DHT22;4266;48.816;9.154;2022-12-16T12:01:11;1.50;83.30
8459;DHT22;4266;48.816;9.154;2022-12-16T12:03:42;1.50;82.30
8459;DHT22;4266;48.816;9.154;2022-12-16T12:06:33;1.20;81.40
8459;DHT22;4266;48.816;9.154;2022-12-16T12:09:21;1.70;83.00
8459;DHT22;4266;48.816;9.154;2022-12-16T12:11:56;2.00;82.80
8459;DHT22;4266;48.816;9.154;2022-12-16T12:14:50;1.90;82.10
8459;DHT22;4266;48.816;9.154;2022-12-16T12:17:23;1.90;82.10
8459;DHT22;4266;48.816;9.154;2022-12-16T12:19:59;2.00;80.80
8459;DHT22;4266;48.816;9.154;2022-12-16T12:22:34;2.00;81.90
8459;DHT22;4266;48.816;9.154;2022-12-16T12:25:09;2.00;81.40
8459;DHT22;4266;48.816;9.154;2022-12-16T12:27:58;1.80;80.90
8459;DHT22;4266;48.816;9.154;2022-12-16T12:30:27;1.50;80.60
8459;DHT22;4266;48.816;9.154;2022-12-16T12:33:05;1.40;80.90
8459;DHT22;4266;48.816;9.154;2022-12-16T12:35:45;1.20;81.30
8459;DHT22;4266;48.816;9.154;2022-12-16T12:38:19;1.20;81.40
8459;DHT22;4266;48.816;9.154;2022-12-16T12:41:10;1.30;82.70
8459;DHT22;4266;48.816;9.154;2022-12-16T12:43:48;1.20;80.90
8459;DHT22;4266;48.816;9.154;2022-12-16T12:46:28;1.20;80.90
8459;DHT22;4266;48.816;9.154;2022-12-16T12:49:05;1.40;81.60
8459;DHT22;4266;48.816;9.154;2022-12-16T12:54:36;1.50;80.90
8459;DHT22;4266;48.816;9.154;2022-12-16T12:57:05;1.20;79.40
8459;DHT22;4266;48.816;9.154;2022-12-16T12:59:43;0.90;79.00
8459;DHT22;4266;48.816;9.154;2022-12-16T13:02:13;0.80;79.30
8459;DHT22;4266;48.816;9.154;2022-12-16T13:04:42;0.80;79.50
8459;DHT22;4266;48.816;9.154;2022-12-16T13:07:14;0.60;79.80
8459;DHT22;4266;48.816;9.154;2022-12-16T13:10:09;0.70;80.40
8459;DHT22;4266;48.816;9.154;2022-12-16T13:12:21;0.50;79.30
8459;DHT22;4266;48.816;9.154;2022-12-16T13:14:55;0.60;79.40
8459;DHT22;4266;48.816;9.154;2022-12-16T13:17:26;0.60;80.40
8459;DHT22;4266;48.816;9.154;2022-12-16T13:19:58;0.50;80.30
8459;DHT22;4266;48.816;9.154;2022-12-16T13:22:34;0.60;81.00
8459;DHT22;4266;48.816;9.154;2022-12-16T13:25:07;0.70;80.40
8459;DHT22;4266;48.816;9.154;2022-12-16T13:27:49;0.70;80.90
8459;DHT22;4266;48.816;9.154;2022-12-16T13:30:21;0.70;81.10
8459;DHT22;4266;48.816;9.154;2022-12-16T13:32:58;0.70;80.30
8459;DHT22;4266;48.816;9.154;2022-12-16T13:35:29;0.60;81.10
8459;DHT22;4266;48.816;9.154;2022-12-16T13:38:04;0.50;80.30
8459;DHT22;4266;48.816;9.154;2022-12-16T13:43:40;0.30;81.60
8459;DHT22;4266;48.816;9.154;2022-12-16T13:46:14;0.30;81.60
8459;DHT22;4266;48.816;9.154;2022-12-16T13:48:46;0.30;81.10
8459;DHT22;4266;48.816;9.154;2022-12-16T13:54:03;0.30;82.00
8459;DHT22;4266;48.816;9.154;2022-12-16T13:56:45;0.10;80.60
8459;DHT22;4266;48.816;9.154;2022-12-16T13:59:17;0.00;81.00
8459;DHT22;4266;48.816;9.154;2022-12-16T14:01:51;-0.10;82.20
8459;DHT22;4266;48.816;9.154;2022-12-16T14:04:26;-0.10;81.70
8459;DHT22;4266;48.816;9.154;2022-12-16T14:06:58;-0.10;81.70
8459;DHT22;4266;48.816;9.154;2022-12-16T14:09:33;0.10;83.20
8459;DHT22;4266;48.816;9.154;2022-12-16T14:12:04;-0.10;82.40
8459;DHT22;4266;48.816;9.154;2022-12-16T14:14:39;-0.20;81.20
8459;DHT22;4266;48.816;9.154;2022-12-16T14:17:10;-0.20;82.30
8459;DHT22;4266;48.816;9.154;2022-12-16T14:20:04;-0.10;81.70
8459;DHT22;4266;48.816;9.154;2022-12-16T14:25:21;-0.10;82.20
8459;DHT22;4266;48.816;9.154;2022-12-16T14:27:53;-0.10;81.90
8459;DHT22;4266;48.816;9.154;2022-12-16T14:30:25;-0.30;82.70
8459;DHT22;4266;48.816;9.154;2022-12-16T14:32:57;-0.30;82.70
8459;DHT22;4266;48.816;9.154;2022-12-16T14:35:29;-0.40;82.60
8459;DHT22;4266;48.816;9.154;2022-12-16T14:40:49;-0.40;82.70
8459;DHT22;4266;48.816;9.154;2022-12-16T14:43:19;-0.50;81.90
8459;DHT22;4266;48.816;9.154;2022-12-16T14:45:50;-0.50;82.70
8459;DHT22;4266;48.816;9.154;2022-12-16T14:48:24;-0.50;82.70
8459;DHT22;4266;48.816;9.154;2022-12-16T14:50:54;-0.60;83.10
8459;DHT22;4266;48.816;9.154;2022-12-16T14:53:29;-0.70;83.10
8459;DHT22;4266;48.816;9.154;2022-12-16T14:56:09;-0.80;83.70
8459;DHT22;4266;48.816;9.154;2022-12-16T14:58:40;-0.60;83.00
8459;DHT22;4266;48.816;9.154;2022-12-16T15:01:14;-0.60;83.20
8459;DHT22;4266;48.816;9.154;2022-12-16T15:03:45;-0.60;82.60
8459;DHT22;4266;48.816;9.154;2022-12-16T15:06:19;-0.60;83.20
8459;DHT22;4266;48.816;9.154;2022-12-16T15:08:50;-0.80;83.10
8459;DHT22;4266;48.816;9.154;2022-12-16T15:11:21;-0.80;83.40
8459;DHT22;4266;48.816;9.154;2022-12-16T15:13:55;-0.90;82.80
8459;DHT22;4266;48.816;9.154;2022-12-16T15:16:28;-0.80;82.30
8459;DHT22;4266;48.816;9.154;2022-12-16T15:18:58;-0.90;83.00
8459;DHT22;4266;48.816;9.154;2022-12-16T15:21:32;-1.00;82.90
8459;DHT22;4266;48.816;9.154;2022-12-16T15:24:06;-1.00;82.00
8459;DHT22;4266;48.816;9.154;2022-12-16T15:26:33;-1.00;83.50
8459;DHT22;4266;48.816;9.154;2022-12-16T15:31:53;-1.20;83.10
8459;DHT22;4266;48.816;9.154;2022-12-16T15:34:46;-1.20;82.60
8459;DHT22;4266;48.816;9.154;2022-12-16T15:37:28;-1.20;83.40
8459;DHT22;4266;48.816;9.154;2022-12-16T15:39:57;-1.20;83.10
8459;DHT22;4266;48.816;9.154;2022-12-16T15:42:30;-1.20;83.10
8459;DHT22;4266;48.816;9.154;2022-12-16T15:45:03;-1.30;83.10
8459;DHT22;4266;48.816;9.154;2022-12-16T15:47:48;-1.30;83.10
8459;DHT22;4266;48.816;9.154;2022-12-16T15:50:21;-1.40;84.00
8459;DHT22;4266;48.816;9.154;2022-12-16T15:52:51;-1.30;83.00
8459;DHT22;4266;48.816;9.154;2022-12-16T15:55:33;-1.30;83.30
8459;DHT22;4266;48.816;9.154;2022-12-16T15:58:29;-1.40;83.70
8459;DHT22;4266;48.816;9.154;2022-12-16T16:01:00;-1.30;84.60
8459;DHT22;4266;48.816;9.154;2022-12-16T16:03:33;-1.20;84.20
8459;DHT22;4266;48.816;9.154;2022-12-16T16:06:22;-1.20;84.20
8459;DHT22;4266;48.816;9.154;2022-12-16T16:08:53;-1.30;84.10
8459;DHT22;4266;48.816;9.154;2022-12-16T16:11:25;-1.30;84.60
8459;DHT22;4266;48.816;9.154;2022-12-16T16:14:05;-1.40;84.20
8459;DHT22;4266;48.816;9.154;2022-12-16T16:16:37;-1.40;84.20
8459;DHT22;4266;48.816;9.154;2022-12-16T16:19:12;-1.30;84.60
8459;DHT22;4266;48.816;9.154;2022-12-16T16:21:43;-1.30;84.20
8459;DHT22;4266;48.816;9.154;2022-12-16T16:24:15;-1.30;84.80
8459;DHT22;4266;48.816;9.154;2022-12-16T16:26:48;-1.30;85.40
8459;DHT22;4266;48.816;9.154;2022-12-16T16:29:20;-1.40;84.80
8459;DHT22;4266;48.816;9.154;2022-12-16T16:31:52;-1.40;84.80
8459;DHT22;4266;48.816;9.154;2022-12-16T16:34:24;-1.40;85.90
8459;DHT22;4266;48.816;9.154;2022-12-16T16:36:57;-1.50;86.60
8459;DHT22;4266;48.816;9.154;2022-12-16T16:39:28;-1.50;86.60
8459;DHT22;4266;48.816;9.154;2022-12-16T16:42:01;-1.60;87.40
8459;DHT22;4266;48.816;9.154;2022-12-16T16:44:33;-1.60;87.40
8459;DHT22;4266;48.816;9.154;2022-12-16T16:47:06;-1.60;86.70
8459;DHT22;4266;48.816;9.154;2022-12-16T16:49:40;-1.50;87.20
8459;DHT22;4266;48.816;9.154;2022-12-16T16:52:12;-1.50;87.10
8459;DHT22;4266;48.816;9.154;2022-12-16T16:54:43;-1.50;87.80
8459;DHT22;4266;48.816;9.154;2022-12-16T16:57:16;-1.60;87.50
8459;DHT22;4266;48.816;9.154;2022-12-16T16:59:47;-1.60;87.50
8459;DHT22;4266;48.816;9.154;2022-12-16T17:02:22;-1.50;87.80
8459;DHT22;4266;48.816;9.154;2022-12-16T17:04:52;-1.40;87.90